OBBI/BAH METAR and TAF weather

Enter ICAO airport designator
Station Type Date Time Source
OBBI METAR 2019/04/18 22:30 UTC NOAA

OBBI 182230Z 12007KT CAVOK 27/17 Q1008 NOSIG


Station Type Date Time Source
OBBI Decoded METAR 2019/04/18 22:30 UTC NOAA

Bahrain International Airport , Bahrain (OBBI) 26-16N 050-39E 2M
Apr 18, 2019 - 06:30 PM EDT / 2019.04.18 2230 UTC
Wind: from the ESE (120 degrees) at 8 MPH (7 KT):0
Visibility: greater than 7 mile(s):0
Temperature: 80 F (27 C)
Dew Point: 62 F (17 C)
Relative Humidity: 54%
Pressure (altimeter): 29.77 in. Hg (1008 hPa)
ob: OBBI 182230Z 12007KT CAVOK 27/17 Q1008 NOSIG
cycle: 22

Station Type Date Time Source
OBBI TAF 2019/04/18 18:33 UTC NOAA

TAF OBBI 181700Z 1818/2000 13012KT CAVOK
BECMG 1915/1917 36010KT

Example: see airport list